createdAt,value
2023-04-10T00:01:41.053Z,97263.30
2023-04-10T00:04:15.424Z,97263.32
2023-04-10T00:06:49.629Z,97265.95
2023-04-10T00:09:23.150Z,97271.73
2023-04-10T00:11:57.326Z,97269.36
2023-04-10T00:14:31.246Z,97265.92
2023-04-10T00:17:04.947Z,97264.02
2023-04-10T00:19:39.180Z,97265.80
2023-04-10T00:22:12.795Z,97263.42
2023-04-10T00:24:46.511Z,97264.05
2023-04-10T00:27:20.489Z,97262.59
2023-04-10T00:29:54.161Z,97264.36
2023-04-10T00:32:28.052Z,97261.00
2023-04-10T00:35:02.085Z,97258.94
2023-04-10T00:37:36.237Z,97262.71
2023-04-10T00:40:11.617Z,97257.65
2023-04-10T00:42:45.149Z,97254.67
2023-04-10T00:45:19.003Z,97255.36
2023-04-10T00:47:53.043Z,97252.30
2023-04-10T00:50:26.901Z,97250.55
2023-04-10T00:53:00.902Z,97254.98
2023-04-10T00:55:34.926Z,97263.50
2023-04-10T00:58:08.681Z,97265.23
2023-04-10T01:00:42.817Z,97265.17
2023-04-10T01:03:17.912Z,97260.45
2023-04-10T01:05:57.729Z,97262.14
2023-04-10T01:08:36.863Z,97261.71
2023-04-10T01:11:15.267Z,97265.66
2023-04-10T01:13:52.771Z,97266.56
2023-04-10T01:16:29.540Z,97267.80
2023-04-10T01:19:07.017Z,97271.85
2023-04-10T01:21:42.123Z,97267.52
2023-04-10T01:24:30.317Z,97267.04
2023-04-10T01:27:14.693Z,97262.52
2023-04-10T01:29:51.256Z,97263.42
2023-04-10T01:32:26.173Z,97266.62
2023-04-10T01:35:01.594Z,97271.64
2023-04-10T01:37:36.413Z,97279.02
2023-04-10T01:40:13.555Z,97285.63
2023-04-10T01:42:49.740Z,97288.59
2023-04-10T01:45:26.418Z,97288.45
2023-04-10T01:48:00.704Z,97281.79
2023-04-10T01:50:35.746Z,97282.66
2023-04-10T01:53:10.731Z,97282.27
2023-04-10T01:55:45.752Z,97279.02
2023-04-10T01:58:19.734Z,97278.09
2023-04-10T02:00:53.421Z,97284.64
2023-04-10T02:03:27.104Z,97288.92
2023-04-10T02:06:20.123Z,97291.02
2023-04-10T02:08:57.598Z,97298.99
2023-04-10T02:11:39.471Z,97298.23
2023-04-10T02:14:15.799Z,97303.38
2023-04-10T02:16:50.266Z,97308.45
2023-04-10T02:19:25.062Z,97313.63
2023-04-10T02:21:59.212Z,97318.98
2023-04-10T02:24:33.788Z,97320.53
2023-04-10T02:27:07.898Z,97320.59
2023-04-10T02:29:41.496Z,97319.55
2023-04-10T02:32:17.820Z,97320.15
2023-04-10T02:34:52.018Z,97320.88
2023-04-10T02:37:26.243Z,97318.05
2023-04-10T02:39:59.786Z,97321.53
2023-04-10T02:42:33.661Z,97328.41
2023-04-10T02:45:11.334Z,97333.24
2023-04-10T02:47:45.452Z,97333.69
2023-04-10T02:50:19.535Z,97332.73
2023-04-10T02:52:53.423Z,97337.19
2023-04-10T02:55:26.935Z,97338.48
2023-04-10T02:58:00.869Z,97337.30
2023-04-10T03:00:34.838Z,97335.09
2023-04-10T03:03:09.235Z,97331.06
2023-04-10T03:05:43.008Z,97324.15
2023-04-10T03:08:16.620Z,97315.52
2023-04-10T03:10:51.056Z,97322.66
2023-04-10T03:13:25.323Z,97323.94
2023-04-10T03:15:59.587Z,97327.73
2023-04-10T03:18:35.161Z,97327.50
2023-04-10T03:21:09.885Z,97329.86
2023-04-10T03:23:43.618Z,97333.42
2023-04-10T03:26:17.483Z,97345.23
2023-04-10T03:28:51.351Z,97349.30
2023-04-10T03:31:26.119Z,97342.21
2023-04-10T03:34:01.219Z,97343.50
2023-04-10T03:36:35.757Z,97342.20
2023-04-10T03:39:09.671Z,97338.50
2023-04-10T03:41:44.481Z,97339.99
2023-04-10T03:44:18.736Z,97349.94
2023-04-10T03:46:53.599Z,97352.89
2023-04-10T03:49:27.775Z,97358.08
2023-04-10T03:52:04.271Z,97357.04
2023-04-10T03:54:41.233Z,97349.26
2023-04-10T03:57:13.138Z,97340.23
2023-04-10T03:59:46.895Z,97338.39
2023-04-10T04:02:21.289Z,97340.92
2023-04-10T04:04:57.634Z,97336.14
2023-04-10T04:07:31.379Z,97337.31
2023-04-10T04:10:05.555Z,97335.74
2023-04-10T04:12:39.530Z,97338.25
2023-04-10T04:15:14.403Z,97343.27
2023-04-10T04:17:48.530Z,97350.41
2023-04-10T04:20:22.346Z,97346.91
2023-04-10T04:22:56.059Z,97342.58
2023-04-10T04:25:30.013Z,97334.55
2023-04-10T04:28:03.905Z,97333.08
2023-04-10T04:30:38.579Z,97334.77
2023-04-10T04:33:12.406Z,97337.20
2023-04-10T04:35:46.442Z,97340.92
2023-04-10T04:38:20.607Z,97343.37
2023-04-10T04:40:54.217Z,97332.17
2023-04-10T04:43:27.997Z,97327.48
2023-04-10T04:46:02.877Z,97326.97
2023-04-10T04:48:37.273Z,97335.04
2023-04-10T04:51:11.913Z,97330.56
2023-04-10T04:53:45.603Z,97327.95
2023-04-10T04:56:19.591Z,97332.27
2023-04-10T04:58:53.405Z,97339.40
2023-04-10T05:01:27.859Z,97339.80
2023-04-10T05:04:01.832Z,97333.08
2023-04-10T05:06:35.909Z,97325.85
2023-04-10T05:09:10.150Z,97317.16
2023-04-10T05:11:43.726Z,97307.85
2023-04-10T05:14:17.453Z,97305.96
2023-04-10T05:16:51.204Z,97316.45
2023-04-10T05:19:25.209Z,97312.49
2023-04-10T05:21:58.868Z,97313.46
2023-04-10T05:24:32.784Z,97307.77
2023-04-10T05:27:07.500Z,97311.50
2023-04-10T05:29:40.975Z,97316.44
2023-04-10T05:32:15.810Z,97314.28
2023-04-10T05:34:49.331Z,97308.45
2023-04-10T05:37:23.136Z,97307.73
2023-04-10T05:39:58.441Z,97300.50
2023-04-10T05:42:32.046Z,97295.64
2023-04-10T05:45:06.004Z,97297.63
2023-04-10T05:47:40.323Z,97301.12
2023-04-10T05:50:14.455Z,97298.16
2023-04-10T05:52:49.113Z,97305.02
2023-04-10T05:55:23.642Z,97296.36
2023-04-10T05:57:57.640Z,97285.84
2023-04-10T06:00:31.225Z,97290.27
2023-04-10T06:03:05.213Z,97286.75
2023-04-10T06:05:39.417Z,97288.08
2023-04-10T06:08:13.629Z,97286.45
2023-04-10T06:10:47.976Z,97281.14
2023-04-10T06:13:22.154Z,97282.08
2023-04-10T06:15:56.069Z,97285.66
2023-04-10T06:18:30.258Z,97289.47
2023-04-10T06:21:03.851Z,97285.55
2023-04-10T06:23:37.720Z,97283.52
2023-04-10T06:26:11.899Z,97285.42
2023-04-10T06:28:46.101Z,97285.13
2023-04-10T06:31:20.299Z,97285.02
2023-04-10T06:33:54.261Z,97284.90
2023-04-10T06:36:28.150Z,97281.42
2023-04-10T06:39:03.118Z,97278.76
2023-04-10T06:41:36.877Z,97272.40
2023-04-10T06:44:10.616Z,97273.70
2023-04-10T06:46:44.267Z,97277.27
2023-04-10T06:49:18.407Z,97278.98
2023-04-10T06:51:52.942Z,97279.09
2023-04-10T06:54:26.973Z,97267.64
2023-04-10T06:57:01.146Z,97259.67
2023-04-10T06:59:36.114Z,97259.91
2023-04-10T07:02:09.817Z,97268.09
2023-04-10T07:04:43.998Z,97271.25
2023-04-10T07:07:19.682Z,97272.54
2023-04-10T07:09:53.848Z,97276.35
2023-04-10T07:12:27.533Z,97271.66
2023-04-10T07:15:01.134Z,97271.39
2023-04-10T07:17:34.930Z,97273.85
2023-04-10T07:20:10.678Z,97260.67
2023-04-10T07:22:44.431Z,97248.41
2023-04-10T07:25:18.785Z,97249.27
2023-04-10T07:27:53.094Z,97248.72
2023-04-10T07:30:26.934Z,97238.67
2023-04-10T07:33:01.471Z,97236.02
2023-04-10T07:35:35.624Z,97234.49
2023-04-10T07:38:09.383Z,97238.55
2023-04-10T07:40:44.932Z,97236.99
2023-04-10T07:43:23.599Z,97225.61
2023-04-10T07:45:57.751Z,97210.55
2023-04-10T07:48:32.150Z,97207.20
2023-04-10T07:51:06.238Z,97207.09
2023-04-10T07:53:40.299Z,97204.86
2023-04-10T07:56:19.802Z,97203.64
2023-04-10T07:58:56.287Z,97205.45
2023-04-10T08:01:30.686Z,97202.65
2023-04-10T08:04:06.637Z,97196.16
2023-04-10T08:06:41.351Z,97186.83
2023-04-10T08:09:15.252Z,97191.05
2023-04-10T08:11:49.556Z,97194.40
2023-04-10T08:14:23.543Z,97196.33
2023-04-10T08:16:58.154Z,97199.35
2023-04-10T08:19:33.122Z,97197.98
2023-04-10T08:22:08.197Z,97190.60
2023-04-10T08:24:42.443Z,97187.02
2023-04-10T08:27:21.619Z,97179.58
2023-04-10T08:29:55.988Z,97171.11
2023-04-10T08:32:31.037Z,97163.02
2023-04-10T08:35:05.572Z,97159.04
2023-04-10T08:37:39.407Z,97152.83
2023-04-10T08:40:14.622Z,97148.70
2023-04-10T08:42:48.677Z,97150.50
2023-04-10T08:45:22.517Z,97151.98
2023-04-10T08:47:59.309Z,97152.66
2023-04-10T08:50:36.545Z,97152.45
2023-04-10T08:53:13.315Z,97150.29
2023-04-10T08:55:46.173Z,97144.09
2023-04-10T08:58:20.109Z,97138.10
2023-04-10T09:00:54.127Z,97140.29
2023-04-10T09:03:28.300Z,97133.60
2023-04-10T09:06:04.490Z,97134.40
2023-04-10T09:08:38.398Z,97132.45
2023-04-10T09:11:13.732Z,97133.83
2023-04-10T09:13:48.404Z,97132.54
2023-04-10T09:16:22.294Z,97132.45
2023-04-10T09:18:56.583Z,97136.90
2023-04-10T09:21:30.363Z,97136.77
2023-04-10T09:24:05.390Z,97140.02
2023-04-10T09:26:40.473Z,97143.60
2023-04-10T09:29:14.301Z,97144.19
2023-04-10T09:31:51.359Z,97144.39
2023-04-10T09:34:29.870Z,97145.72
2023-04-10T09:37:09.716Z,97151.29
2023-04-10T09:39:44.397Z,97150.25
2023-04-10T09:42:18.647Z,97152.21
2023-04-10T09:44:56.116Z,97156.23
2023-04-10T09:47:31.294Z,97154.89
2023-04-10T09:50:05.652Z,97155.95
2023-04-10T09:52:39.891Z,97158.39
2023-04-10T09:55:21.401Z,97162.23
2023-04-10T09:57:56.348Z,97164.15
2023-04-10T10:00:33.460Z,97164.54
2023-04-10T10:03:12.421Z,97164.27
2023-04-10T10:05:47.557Z,97161.02
2023-04-10T10:08:21.640Z,97159.83
2023-04-10T10:10:57.376Z,97158.92
2023-04-10T10:13:35.583Z,97165.67
2023-04-10T10:16:17.122Z,97171.48
2023-04-10T10:18:57.191Z,97175.70
2023-04-10T10:21:34.456Z,97176.18
2023-04-10T10:24:11.793Z,97172.69
2023-04-10T10:26:47.211Z,97173.71
2023-04-10T10:29:21.561Z,97176.09
2023-04-10T10:31:57.321Z,97175.30
2023-04-10T10:34:31.341Z,97169.77
2023-04-10T10:37:06.661Z,97170.98
2023-04-10T10:39:50.856Z,97172.98
2023-04-10T10:42:28.490Z,97171.38
2023-04-10T10:45:10.295Z,97169.33
2023-04-10T10:47:50.151Z,97165.64
2023-04-10T10:50:25.130Z,97159.30
2023-04-10T10:52:59.803Z,97160.92
2023-04-10T10:55:44.768Z,97166.38
2023-04-10T10:58:20.131Z,97171.76
2023-04-10T11:01:12.368Z,97170.95
2023-04-10T11:03:46.963Z,97174.88
2023-04-10T11:06:22.388Z,97177.65
2023-04-10T11:08:56.885Z,97179.02
2023-04-10T11:11:31.643Z,97181.86
2023-04-10T11:14:21.937Z,97178.08
2023-04-10T11:16:55.882Z,97182.45
2023-04-10T11:19:29.885Z,97180.59
2023-04-10T11:22:11.115Z,97178.59
2023-04-10T11:25:02.844Z,97176.82
2023-04-10T11:27:49.383Z,97178.15
2023-04-10T11:30:34.774Z,97177.81
2023-04-10T11:33:09.193Z,97171.20
2023-04-10T11:35:44.193Z,97174.85
2023-04-10T11:38:29.111Z,97175.64
2023-04-10T11:41:07.560Z,97171.45
2023-04-10T11:43:42.319Z,97168.42
2023-04-10T11:46:19.024Z,97173.76
2023-04-10T11:48:57.109Z,97169.30
2023-04-10T11:51:35.216Z,97172.94
2023-04-10T11:54:24.213Z,97168.83
2023-04-10T11:57:04.278Z,97171.55
2023-04-10T11:59:40.284Z,97168.46
2023-04-10T12:02:19.646Z,97166.01
2023-04-10T12:05:01.552Z,97165.19
2023-04-10T12:07:35.850Z,97162.54
2023-04-10T12:10:11.572Z,97161.67
2023-04-10T12:12:48.483Z,97156.77
2023-04-10T12:15:33.121Z,97158.65
2023-04-10T12:18:07.953Z,97155.63
2023-04-10T12:20:41.995Z,97154.20
2023-04-10T12:23:16.372Z,97157.95
2023-04-10T12:25:52.547Z,97159.23
2023-04-10T12:28:26.527Z,97156.10
2023-04-10T12:31:00.907Z,97156.23
2023-04-10T12:33:35.116Z,97153.60
2023-04-10T12:36:09.913Z,97145.32
2023-04-10T12:38:45.509Z,97147.38
2023-04-10T12:41:26.734Z,97150.66
2023-04-10T12:44:11.702Z,97148.55
2023-04-10T12:46:46.549Z,97149.38
2023-04-10T12:49:21.054Z,97144.40
2023-04-10T12:51:55.547Z,97143.21
2023-04-10T12:54:33.732Z,97138.50
2023-04-10T12:57:09.809Z,97143.63
2023-04-10T12:59:46.296Z,97146.70
2023-04-10T13:02:22.013Z,97141.16
2023-04-10T13:04:56.327Z,97136.75
2023-04-10T13:07:30.582Z,97133.52
2023-04-10T13:10:05.297Z,97132.81
2023-04-10T13:12:41.565Z,97131.96
2023-04-10T13:15:15.550Z,97130.88
2023-04-10T13:17:50.914Z,97133.33
2023-04-10T13:20:25.909Z,97131.50
2023-04-10T13:22:59.931Z,97126.23
2023-04-10T13:25:35.458Z,97124.64
2023-04-10T13:28:12.433Z,97121.56
2023-04-10T13:30:48.245Z,97121.09
2023-04-10T13:33:25.447Z,97111.55
2023-04-10T13:35:59.383Z,97109.10
2023-04-10T13:38:34.578Z,97110.80
2023-04-10T13:41:09.375Z,97108.13
2023-04-10T13:43:44.078Z,97105.92
2023-04-10T13:46:18.078Z,97101.35
2023-04-10T13:48:52.340Z,97097.04
2023-04-10T13:51:26.108Z,97092.02
2023-04-10T13:54:00.403Z,97094.96
2023-04-10T13:56:34.426Z,97091.70
2023-04-10T13:59:08.927Z,97087.74
2023-04-10T14:01:45.160Z,97090.64
2023-04-10T14:04:19.217Z,97090.54
2023-04-10T14:06:58.182Z,97093.38
2023-04-10T14:09:31.915Z,97089.59
2023-04-10T14:12:06.245Z,97089.22
2023-04-10T14:14:40.221Z,97088.45
2023-04-10T14:17:16.003Z,97090.72
2023-04-10T14:19:52.063Z,97087.42
2023-04-10T14:22:26.190Z,97085.31
2023-04-10T14:25:11.719Z,97082.00
2023-04-10T14:27:48.015Z,97081.89
2023-04-10T14:30:21.905Z,97080.15
2023-04-10T14:32:56.205Z,97077.79
2023-04-10T14:35:30.252Z,97075.98
2023-04-10T14:38:07.836Z,97074.99
2023-04-10T14:40:50.498Z,97076.17
2023-04-10T14:43:25.148Z,97077.17
2023-04-10T14:46:00.113Z,97075.21
2023-04-10T14:48:33.955Z,97071.73
2023-04-10T14:51:13.140Z,97070.02
2023-04-10T14:53:47.700Z,97069.31
2023-04-10T14:56:22.944Z,97064.05
2023-04-10T14:58:57.192Z,97059.48
2023-04-10T15:01:37.642Z,97057.80
2023-04-10T15:04:12.322Z,97054.83
2023-04-10T15:07:12.933Z,97057.96
2023-04-10T15:09:49.313Z,97055.27
2023-04-10T15:12:23.913Z,97057.16
2023-04-10T15:14:59.015Z,97058.19
2023-04-10T15:17:36.882Z,97058.02
2023-04-10T15:20:15.130Z,97054.07
2023-04-10T15:22:50.259Z,97050.80
2023-04-10T15:25:24.149Z,97044.40
2023-04-10T15:28:01.927Z,97041.96
2023-04-10T15:30:35.973Z,97039.19
2023-04-10T15:33:10.228Z,97038.86
2023-04-10T15:35:44.777Z,97031.48
2023-04-10T15:38:18.950Z,97030.71
2023-04-10T15:40:53.012Z,97030.63
2023-04-10T15:43:31.603Z,97026.10
2023-04-10T15:46:05.522Z,97019.77
2023-04-10T15:48:40.208Z,97020.67
2023-04-10T15:51:19.084Z,97013.01
2023-04-10T15:54:05.268Z,97010.88
2023-04-10T15:56:42.342Z,97006.11
2023-04-10T15:59:17.695Z,97010.69
2023-04-10T16:01:52.929Z,97009.27
2023-04-10T16:04:27.695Z,97009.20
2023-04-10T16:07:02.731Z,97009.94
2023-04-10T16:09:38.529Z,97006.80
2023-04-10T16:12:31.140Z,97010.46
2023-04-10T16:15:15.518Z,97012.95
2023-04-10T16:17:52.992Z,97010.54
2023-04-10T16:20:27.720Z,97009.04
2023-04-10T16:23:02.824Z,97007.20
2023-04-10T16:25:36.525Z,97001.28
2023-04-10T16:28:10.524Z,96996.81
2023-04-10T16:30:47.763Z,96989.53
2023-04-10T16:33:22.757Z,96986.98
2023-04-10T16:35:59.202Z,96981.56
2023-04-10T16:38:35.362Z,96986.27
2023-04-10T16:41:24.190Z,96994.19
2023-04-10T16:44:01.824Z,96994.84
2023-04-10T16:46:36.687Z,96991.71
2023-04-10T16:49:19.010Z,96991.66
2023-04-10T16:51:54.471Z,96996.89
2023-04-10T16:54:37.430Z,96999.98
2023-04-10T16:57:26.827Z,96998.23
2023-04-10T17:00:02.018Z,96996.93
2023-04-10T17:02:38.849Z,96990.20
2023-04-10T17:05:14.739Z,96983.81
2023-04-10T17:07:50.202Z,96978.13
2023-04-10T17:10:32.228Z,96980.79
2023-04-10T17:13:18.240Z,96988.44
2023-04-10T17:16:07.047Z,96990.77
2023-04-10T17:18:41.277Z,96996.06
2023-04-10T17:21:28.260Z,96993.98
2023-04-10T17:24:14.350Z,96994.06
2023-04-10T17:26:52.639Z,97000.73
2023-04-10T17:29:27.706Z,96998.84
2023-04-10T17:32:16.231Z,96997.17
2023-04-10T17:35:01.075Z,97001.02
2023-04-10T17:37:37.687Z,97008.43
2023-04-10T17:40:16.089Z,97009.80
2023-04-10T17:42:52.712Z,97007.05
2023-04-10T17:45:48.932Z,96997.02
2023-04-10T17:48:29.644Z,96987.72
2023-04-10T17:51:14.959Z,96984.64
2023-04-10T17:53:50.170Z,96978.75
2023-04-10T17:56:31.841Z,96975.95
2023-04-10T17:59:09.568Z,96972.16
2023-04-10T18:01:46.116Z,96968.94
2023-04-10T18:04:21.579Z,96962.34
2023-04-10T18:06:58.970Z,96960.20
2023-04-10T18:09:32.986Z,96953.53
2023-04-10T18:12:20.544Z,96946.23
2023-04-10T18:14:54.926Z,96944.48
2023-04-10T18:17:30.214Z,96942.80
2023-04-10T18:20:04.511Z,96952.84
2023-04-10T18:22:40.686Z,96963.66
2023-04-10T18:25:20.292Z,96957.51
2023-04-10T18:28:14.446Z,96944.30
2023-04-10T18:30:57.185Z,96941.58
2023-04-10T18:33:32.915Z,96952.05
2023-04-10T18:36:11.844Z,96957.20
2023-04-10T18:38:45.962Z,96959.87
2023-04-10T18:41:24.340Z,96954.35
2023-04-10T18:44:05.099Z,96943.11
2023-04-10T18:46:48.639Z,96933.38
2023-04-10T18:49:29.636Z,96931.02
2023-04-10T18:52:05.439Z,96930.53
2023-04-10T18:54:40.878Z,96931.63
2023-04-10T18:57:15.947Z,96925.68
2023-04-10T18:59:52.069Z,96917.54
2023-04-10T19:02:31.798Z,96910.26
2023-04-10T19:05:18.831Z,96908.14
2023-04-10T19:08:04.719Z,96898.35
2023-04-10T19:10:41.503Z,96898.52
2023-04-10T19:13:24.174Z,96898.80
2023-04-10T19:16:15.490Z,96891.89
2023-04-10T19:18:53.134Z,96881.29
2023-04-10T19:21:29.413Z,96878.09
2023-04-10T19:24:04.959Z,96880.24
2023-04-10T19:26:42.849Z,96883.59
2023-04-10T19:29:18.551Z,96877.08
2023-04-10T19:31:55.002Z,96867.95
2023-04-10T19:34:30.254Z,96866.11
2023-04-10T19:37:08.375Z,96866.09
2023-04-10T19:39:47.846Z,96867.82
2023-04-10T19:42:28.490Z,96875.02
2023-04-10T19:45:05.121Z,96876.19
2023-04-10T19:47:44.383Z,96873.59
2023-04-10T19:50:21.890Z,96872.48
2023-04-10T19:52:59.478Z,96870.16
2023-04-10T19:55:42.469Z,96867.38
2023-04-10T19:58:35.906Z,96869.29
2023-04-10T20:01:21.061Z,96873.88
2023-04-10T20:03:59.616Z,96866.99
2023-04-10T20:06:44.136Z,96852.23
2023-04-10T20:09:22.773Z,96843.61
2023-04-10T20:11:57.678Z,96846.27
2023-04-10T20:14:35.418Z,96851.47
2023-04-10T20:17:12.846Z,96856.58
2023-04-10T20:19:47.471Z,96856.91
2023-04-10T20:22:24.553Z,96860.81
2023-04-10T20:24:58.826Z,96868.80
2023-04-10T20:27:34.032Z,96874.58
2023-04-10T20:30:13.077Z,96874.15
2023-04-10T20:32:48.227Z,96874.63
2023-04-10T20:35:25.371Z,96881.13
2023-04-10T20:37:58.976Z,96879.59
2023-04-10T20:40:33.447Z,96877.80
2023-04-10T20:43:12.438Z,96876.06
2023-04-10T20:45:46.494Z,96868.87
2023-04-10T20:48:22.452Z,96861.55
2023-04-10T20:50:56.729Z,96857.35
2023-04-10T20:53:30.865Z,96853.81
2023-04-10T20:56:06.310Z,96851.64
2023-04-10T20:58:40.349Z,96849.98
2023-04-10T21:01:14.478Z,96843.02
2023-04-10T21:03:48.408Z,96838.52
2023-04-10T21:06:25.207Z,96830.61
2023-04-10T21:08:57.086Z,96828.33
2023-04-10T21:11:34.012Z,96822.98
2023-04-10T21:14:06.093Z,96819.27
2023-04-10T21:16:42.963Z,96812.16
2023-04-10T21:19:15.125Z,96805.06
2023-04-10T21:21:50.610Z,96804.63
2023-04-10T21:24:25.400Z,96806.68
2023-04-10T21:26:59.410Z,96807.86
2023-04-10T21:29:34.433Z,96802.65
2023-04-10T21:32:11.825Z,96791.13
2023-04-10T21:34:50.523Z,96778.37
2023-04-10T21:37:28.549Z,96769.39
2023-04-10T21:40:05.743Z,96768.59
2023-04-10T21:42:42.234Z,96770.17
2023-04-10T21:45:17.681Z,96776.52
2023-04-10T21:47:52.185Z,96788.04
2023-04-10T21:50:27.405Z,96790.20
2023-04-10T21:53:01.229Z,96788.64
2023-04-10T21:55:38.527Z,96790.67
2023-04-10T21:58:14.840Z,96795.21
2023-04-10T22:00:51.981Z,96793.95
2023-04-10T22:03:27.758Z,96789.88
2023-04-10T22:06:03.286Z,96791.44
2023-04-10T22:08:41.662Z,96791.91
2023-04-10T22:11:16.113Z,96791.57
2023-04-10T22:13:50.121Z,96785.46
2023-04-10T22:16:24.588Z,96788.86
2023-04-10T22:18:58.777Z,96793.46
2023-04-10T22:21:32.857Z,96793.87
2023-04-10T22:24:07.009Z,96790.21
2023-04-10T22:26:42.617Z,96786.27
2023-04-10T22:29:16.716Z,96783.45
2023-04-10T22:31:50.684Z,96788.20
2023-04-10T22:34:24.149Z,96789.27
2023-04-10T22:36:58.197Z,96790.27
2023-04-10T22:39:32.225Z,96784.14
2023-04-10T22:42:06.085Z,96773.88
2023-04-10T22:44:39.903Z,96767.23
2023-04-10T22:47:14.188Z,96760.83
2023-04-10T22:49:47.835Z,96754.77
2023-04-10T22:52:21.781Z,96755.59
2023-04-10T22:54:55.552Z,96753.16
2023-04-10T22:57:29.548Z,96752.85
2023-04-10T23:00:04.360Z,96752.27
2023-04-10T23:02:38.775Z,96749.92
2023-04-10T23:05:13.367Z,96745.96
2023-04-10T23:07:47.132Z,96745.92
2023-04-10T23:10:21.994Z,96743.66
2023-04-10T23:12:56.078Z,96748.19
2023-04-10T23:15:29.848Z,96756.89
2023-04-10T23:18:04.288Z,96757.30
2023-04-10T23:20:38.998Z,96759.08
2023-04-10T23:23:12.908Z,96754.70
2023-04-10T23:25:46.543Z,96751.59
2023-04-10T23:28:20.283Z,96750.52
2023-04-10T23:30:53.929Z,96745.01
2023-04-10T23:33:27.756Z,96745.86
2023-04-10T23:36:01.520Z,96747.52
2023-04-10T23:38:35.288Z,96750.48
2023-04-10T23:41:09.727Z,96749.88
2023-04-10T23:43:43.590Z,96741.91
2023-04-10T23:46:17.652Z,96742.88
2023-04-10T23:48:52.175Z,96732.14
2023-04-10T23:51:27.364Z,96725.53
2023-04-10T23:54:01.197Z,96723.58
2023-04-10T23:56:35.255Z,96727.00
2023-04-10T23:59:08.937Z,96722.95
